createdAt,value
2019-05-21T17:48:19.556Z,1.90
2019-05-21T17:49:19.948Z,2.80
2019-05-21T17:50:19.671Z,2.10
2019-05-21T17:51:19.659Z,1.50
2019-05-21T17:52:19.977Z,2.00
2019-05-21T17:53:19.735Z,2.80
2019-05-21T17:54:19.751Z,3.10
2019-05-21T17:55:19.669Z,3.20
2019-05-21T17:56:20.034Z,3.80
2019-05-21T17:57:19.709Z,4.30
2019-05-21T17:58:19.689Z,4.00
2019-05-21T17:59:20.361Z,3.40
2019-05-21T18:00:19.810Z,2.70
2019-05-21T18:01:19.752Z,1.90
2019-05-21T18:02:19.765Z,2.30
2019-05-21T18:03:19.819Z,3.50
2019-05-21T18:04:19.801Z,2.70
2019-05-21T18:05:19.815Z,3.70
2019-05-21T18:06:19.898Z,2.40
2019-05-21T18:07:20.080Z,2.80
2019-05-21T18:08:19.874Z,2.60
2019-05-21T18:09:19.890Z,1.90
2019-05-21T18:10:19.852Z,2.40
2019-05-21T18:11:19.978Z,1.70
2019-05-21T18:12:31.772Z,2.30
2019-05-21T18:13:19.911Z,3.70
2019-05-21T18:14:19.902Z,3.10
2019-05-21T18:15:19.901Z,3.30
2019-05-21T18:16:19.925Z,2.20
2019-05-21T18:17:19.931Z,2.50
2019-05-21T18:18:19.971Z,2.90
2019-05-21T18:19:19.903Z,2.10
2019-05-21T18:20:19.963Z,2.90
2019-05-21T18:21:19.940Z,2.20
2019-05-21T18:22:19.934Z,2.80
2019-05-21T18:23:19.978Z,3.60
2019-05-21T18:24:19.977Z,2.20
2019-05-21T18:25:19.918Z,4.00
2019-05-21T18:26:19.927Z,1.00
2019-05-21T18:27:19.926Z,2.10
2019-05-21T18:28:19.913Z,1.80
2019-05-21T18:29:19.994Z,2.10
2019-05-21T18:30:19.957Z,3.50
2019-05-21T18:31:19.917Z,2.10
2019-05-21T18:32:19.950Z,1.60
2019-05-21T18:33:20.112Z,1.90
2019-05-21T18:34:19.915Z,2.90
2019-05-21T18:35:19.960Z,3.50
2019-05-21T18:36:19.956Z,2.80
2019-05-21T18:37:19.945Z,3.90
2019-05-21T18:38:19.927Z,3.90
2019-05-21T18:39:19.979Z,1.60
2019-05-21T18:40:19.951Z,2.60
2019-05-21T18:41:19.932Z,2.50
2019-05-21T18:42:22.577Z,3.40
2019-05-21T18:43:19.953Z,2.60
2019-05-21T18:44:19.956Z,3.50
2019-05-21T18:45:19.959Z,2.60
2019-05-21T18:46:19.946Z,5.50
2019-05-21T18:47:19.943Z,1.40
2019-05-21T18:48:19.966Z,3.20
2019-05-21T18:49:19.937Z,1.60
2019-05-21T18:50:34.469Z,2.00
2019-05-21T18:51:19.979Z,2.10
2019-05-21T18:52:19.945Z,1.90
2019-05-21T18:53:19.947Z,3.00
2019-05-21T18:54:19.930Z,2.90
2019-05-21T18:55:19.962Z,1.60
2019-05-21T18:56:19.972Z,3.60
2019-05-21T18:57:19.968Z,2.70
2019-05-21T18:58:19.960Z,3.50
2019-05-21T18:59:19.933Z,2.80
2019-05-21T19:00:19.980Z,1.80
2019-05-21T19:01:19.972Z,3.30
2019-05-21T19:02:20.030Z,4.80
2019-05-21T19:03:25.327Z,4.60
2019-05-21T19:04:19.941Z,2.80
2019-05-21T19:05:19.944Z,3.70
2019-05-21T19:06:19.973Z,3.10
2019-05-21T19:07:19.962Z,3.90
2019-05-21T19:08:20.015Z,2.10
2019-05-21T19:09:19.965Z,4.90
2019-05-21T19:10:19.962Z,3.30
2019-05-21T19:11:19.962Z,2.70
2019-05-21T19:12:19.963Z,3.00
2019-05-21T19:13:19.992Z,2.90
2019-05-21T19:14:19.985Z,3.30
2019-05-21T19:15:19.993Z,2.20
2019-05-21T19:16:20.002Z,3.50
2019-05-21T19:17:33.239Z,1.80
2019-05-21T19:18:19.986Z,1.80
2019-05-21T19:19:19.980Z,2.00
2019-05-21T19:20:20.013Z,4.50
2019-05-21T19:21:20.001Z,3.90
2019-05-21T19:22:19.972Z,1.60
2019-05-21T19:23:19.984Z,2.90
2019-05-21T19:24:19.988Z,2.90
2019-05-21T19:25:20.027Z,3.50
2019-05-21T19:26:20.000Z,2.80
2019-05-21T19:27:19.982Z,3.60
2019-05-21T19:28:19.964Z,2.70
2019-05-21T19:29:19.964Z,3.40
2019-05-21T19:30:19.979Z,2.50
2019-05-21T19:31:19.984Z,5.00
2019-05-21T19:32:20.083Z,1.90
2019-05-21T19:33:19.992Z,1.60
2019-05-21T19:34:20.022Z,1.80
2019-05-21T19:35:19.958Z,8.00
2019-05-21T19:36:19.993Z,15.10
2019-05-21T19:37:19.993Z,20.40
2019-05-21T19:38:20.032Z,24.60
2019-05-21T19:39:20.014Z,29.00
2019-05-21T19:40:20.039Z,21.60
2019-05-21T19:41:20.001Z,18.00
2019-05-21T19:42:19.997Z,19.50
2019-05-21T19:43:20.061Z,17.90
2019-05-21T19:44:20.040Z,7.80
2019-05-21T19:45:20.005Z,6.00
2019-05-21T19:46:19.983Z,4.90
2019-05-21T19:47:20.028Z,4.40
2019-05-21T19:48:20.026Z,5.20
2019-05-21T19:49:20.023Z,3.80
2019-05-21T19:50:20.004Z,1.80
2019-05-21T19:51:19.997Z,2.40
2019-05-21T19:52:19.986Z,3.10
2019-05-21T19:53:19.991Z,3.00
2019-05-21T19:54:20.046Z,4.60
2019-05-21T19:55:20.018Z,2.70
2019-05-21T19:56:20.045Z,5.40
2019-05-21T19:57:20.021Z,3.40
2019-05-21T19:58:20.016Z,3.80
2019-05-21T19:59:20.027Z,4.50
2019-05-21T20:00:20.047Z,4.50
2019-05-21T20:01:20.051Z,3.80
2019-05-21T20:02:19.997Z,2.70
2019-05-21T20:03:20.008Z,3.30
2019-05-21T20:04:19.993Z,3.60
2019-05-21T20:05:20.016Z,3.80
2019-05-21T20:06:20.043Z,3.20
2019-05-21T20:07:20.078Z,3.40
2019-05-21T20:08:20.013Z,2.90
2019-05-21T20:09:20.027Z,3.30
2019-05-21T20:10:19.987Z,5.80
2019-05-21T20:11:20.058Z,5.70
2019-05-21T20:12:20.032Z,4.80
2019-05-21T20:13:31.855Z,4.70
2019-05-21T20:14:20.069Z,4.80
2019-05-21T20:15:20.028Z,4.80
2019-05-21T20:16:20.012Z,4.10
2019-05-21T20:17:20.053Z,3.60
2019-05-21T20:18:20.176Z,4.70
2019-05-21T20:19:20.010Z,3.60
2019-05-21T20:20:20.063Z,4.10
2019-05-21T20:21:20.039Z,6.30
2019-05-21T20:22:20.048Z,7.00
2019-05-21T20:23:20.033Z,3.70
2019-05-21T20:24:20.048Z,4.60
2019-05-21T20:25:20.070Z,4.10
2019-05-21T20:26:20.060Z,4.20
2019-05-21T20:27:20.061Z,6.60
2019-05-21T20:28:20.051Z,5.00
2019-05-21T20:29:20.078Z,4.40
2019-05-21T20:30:20.093Z,5.30
2019-05-21T20:31:20.027Z,4.90
2019-05-21T20:32:20.044Z,3.60
2019-05-21T20:33:20.053Z,4.00
2019-05-21T20:34:20.078Z,4.60
2019-05-21T20:35:20.101Z,6.20
2019-05-21T20:36:20.071Z,5.70
2019-05-21T20:37:20.010Z,6.00
2019-05-21T20:38:20.077Z,4.40
2019-05-21T20:39:20.063Z,3.90
2019-05-21T20:40:20.021Z,3.20
2019-05-21T20:41:20.076Z,3.20
2019-05-21T20:42:20.067Z,4.40
2019-05-21T20:43:20.040Z,4.80
2019-05-21T20:44:20.037Z,3.50
2019-05-21T20:45:20.065Z,4.50
2019-05-21T20:46:20.046Z,3.70
2019-05-21T20:47:20.083Z,4.20
2019-05-21T20:48:20.065Z,4.40
2019-05-21T20:49:20.069Z,3.60
2019-05-21T20:50:20.046Z,5.10
2019-05-21T20:51:20.056Z,4.10
2019-05-21T20:52:20.056Z,4.70
2019-05-21T20:53:20.097Z,4.60
2019-05-21T20:54:20.078Z,3.70
2019-05-21T20:55:20.073Z,3.40
2019-05-21T20:56:20.055Z,3.20
2019-05-21T20:57:20.097Z,4.70
2019-05-21T20:58:20.122Z,5.90
2019-05-21T20:59:20.073Z,5.40
2019-05-21T21:00:20.070Z,5.20
2019-05-21T21:01:20.046Z,3.70
2019-05-21T21:02:20.082Z,6.70
2019-05-21T21:03:20.112Z,5.90
2019-05-21T21:04:20.106Z,5.00
2019-05-21T21:05:20.054Z,6.40
2019-05-21T21:06:34.321Z,4.30
2019-05-21T21:07:20.074Z,3.90
2019-05-21T21:08:20.069Z,5.50
2019-05-21T21:09:20.086Z,4.00
2019-05-21T21:10:20.143Z,5.60
2019-05-21T21:11:20.062Z,5.60
2019-05-21T21:12:20.080Z,3.70
2019-05-21T21:13:20.069Z,3.90
2019-05-21T21:14:20.104Z,3.10
2019-05-21T21:15:20.167Z,4.20
2019-05-21T21:16:20.049Z,3.70
2019-05-21T21:17:20.062Z,4.30
2019-05-21T21:18:20.106Z,4.00
2019-05-21T21:19:20.082Z,4.60
2019-05-21T21:20:20.162Z,3.40
2019-05-21T21:21:20.100Z,5.60
2019-05-21T21:22:20.076Z,6.00
2019-05-21T21:23:20.094Z,6.00
2019-05-21T21:24:20.084Z,4.20
2019-05-21T21:25:20.072Z,5.20
2019-05-21T21:26:20.193Z,3.50
2019-05-21T21:27:20.091Z,4.20
2019-05-21T21:28:20.121Z,4.90
2019-05-21T21:29:20.103Z,4.90
2019-05-21T21:30:20.089Z,6.30
2019-05-21T21:31:20.107Z,4.20
2019-05-21T21:32:20.110Z,4.10
2019-05-21T21:33:20.105Z,4.00
2019-05-21T21:34:20.080Z,5.20
2019-05-21T21:35:20.109Z,4.40
2019-05-21T21:36:20.131Z,3.40
2019-05-21T21:37:20.088Z,3.40
2019-05-21T21:38:20.523Z,4.20
2019-05-21T21:39:20.086Z,6.10
2019-05-21T21:40:20.504Z,4.60
2019-05-21T21:41:20.098Z,3.60
2019-05-21T21:42:20.121Z,6.10
2019-05-21T21:43:20.460Z,6.40
2019-05-21T21:44:33.143Z,4.00
2019-05-21T21:45:20.106Z,3.20
2019-05-21T21:46:20.366Z,3.40
2019-05-21T21:47:20.148Z,4.40
2019-05-21T21:48:20.133Z,4.50
2019-05-21T21:49:20.115Z,4.40
2019-05-21T21:50:20.093Z,3.50
2019-05-21T21:51:20.264Z,6.10
2019-05-21T21:52:20.098Z,5.50
2019-05-21T21:53:20.156Z,4.10
2019-05-21T21:54:20.123Z,5.30
2019-05-21T21:55:20.109Z,4.30
2019-05-21T21:56:20.111Z,3.70
2019-05-21T21:57:20.119Z,5.00
2019-05-21T21:58:20.110Z,5.10
2019-05-21T21:59:20.128Z,4.80
2019-05-21T22:00:20.142Z,4.20
2019-05-21T22:01:20.135Z,4.60
2019-05-21T22:02:20.140Z,5.20
2019-05-21T22:03:20.129Z,6.80
2019-05-21T22:04:20.119Z,5.60
2019-05-21T22:05:20.125Z,4.70
2019-05-21T22:06:20.146Z,3.50
2019-05-21T22:07:20.126Z,4.60
2019-05-21T22:08:20.160Z,6.20
2019-05-21T22:09:20.551Z,3.00
2019-05-21T22:10:20.177Z,6.80
2019-05-21T22:11:20.131Z,3.50
2019-05-21T22:12:20.118Z,4.30
2019-05-21T22:13:20.122Z,4.40
2019-05-21T22:14:20.146Z,3.50
2019-05-21T22:15:20.151Z,3.00
2019-05-21T22:16:20.114Z,4.90
2019-05-21T22:17:20.247Z,3.90
2019-05-21T22:18:20.135Z,3.60
2019-05-21T22:19:20.162Z,3.70
2019-05-21T22:20:20.154Z,4.70
2019-05-21T22:21:20.144Z,6.10
2019-05-21T22:22:20.151Z,5.00
2019-05-21T22:23:20.135Z,4.70
2019-05-21T22:24:20.156Z,3.60
2019-05-21T22:25:20.401Z,3.00
2019-05-21T22:26:20.161Z,5.90
2019-05-21T22:27:20.163Z,3.30
2019-05-21T22:28:20.226Z,3.50
2019-05-21T22:29:20.192Z,4.00
2019-05-21T22:30:20.152Z,6.40
2019-05-21T22:31:20.157Z,3.70
2019-05-21T22:32:20.126Z,6.70
2019-05-21T22:33:20.264Z,4.70
2019-05-21T22:34:20.224Z,4.70
2019-05-21T22:35:20.159Z,2.70
2019-05-21T22:36:20.158Z,3.70
2019-05-21T22:37:20.136Z,4.60
2019-05-21T22:38:20.146Z,3.70
2019-05-21T22:39:20.148Z,3.60
2019-05-21T22:40:20.171Z,3.20
2019-05-21T22:41:20.170Z,5.20
2019-05-21T22:42:20.150Z,2.90
2019-05-21T22:43:20.144Z,2.60
2019-05-21T22:44:20.152Z,3.60
2019-05-21T22:45:20.156Z,4.20
2019-05-21T22:46:20.173Z,4.00
2019-05-21T22:47:20.214Z,4.90
2019-05-21T22:48:20.174Z,3.90
2019-05-21T22:49:20.156Z,4.60
2019-05-21T22:50:20.165Z,4.00
2019-05-21T22:51:20.172Z,5.80
2019-05-21T22:52:20.215Z,3.30
2019-05-21T22:53:20.211Z,3.00
2019-05-21T22:54:20.172Z,2.90
2019-05-21T22:55:20.169Z,3.30
2019-05-21T22:56:20.246Z,2.70
2019-05-21T22:57:20.228Z,3.90
2019-05-21T22:58:20.162Z,6.00
2019-05-21T22:59:20.165Z,3.50
2019-05-21T23:00:20.198Z,3.80
2019-05-21T23:01:20.171Z,4.30
2019-05-21T23:02:20.213Z,4.30
2019-05-21T23:03:20.204Z,2.60
2019-05-21T23:04:20.232Z,6.90
2019-05-21T23:05:23.019Z,5.30
2019-05-21T23:06:20.174Z,3.20
2019-05-21T23:07:20.168Z,4.40
2019-05-21T23:08:20.192Z,3.90
2019-05-21T23:09:20.186Z,4.10
2019-05-21T23:10:20.188Z,3.90
2019-05-21T23:11:22.957Z,4.20
2019-05-21T23:12:20.177Z,5.70
2019-05-21T23:13:20.253Z,5.30
2019-05-21T23:14:20.184Z,3.60
2019-05-21T23:15:25.102Z,4.10
2019-05-21T23:16:20.185Z,3.30
2019-05-21T23:17:20.184Z,4.30
2019-05-21T23:18:20.213Z,3.20
2019-05-21T23:19:20.188Z,3.00
2019-05-21T23:20:20.198Z,3.10
2019-05-21T23:21:20.190Z,5.30
2019-05-21T23:22:20.217Z,6.60
2019-05-21T23:23:20.216Z,5.40
2019-05-21T23:24:20.207Z,3.00
2019-05-21T23:25:20.190Z,3.30
2019-05-21T23:26:20.183Z,2.60
2019-05-21T23:27:20.196Z,4.70
2019-05-21T23:28:20.209Z,6.70
2019-05-21T23:29:20.224Z,3.10
2019-05-21T23:30:20.198Z,5.20
2019-05-21T23:31:20.201Z,6.10
2019-05-21T23:32:20.241Z,3.90
2019-05-21T23:33:20.199Z,3.10
2019-05-21T23:34:20.214Z,5.40
2019-05-21T23:35:20.255Z,4.90
2019-05-21T23:36:20.210Z,4.00
2019-05-21T23:37:20.227Z,3.20
2019-05-21T23:38:20.188Z,3.60
2019-05-21T23:39:20.205Z,3.70
2019-05-21T23:40:20.270Z,3.40
2019-05-21T23:41:20.281Z,5.10
2019-05-21T23:42:28.936Z,3.10
2019-05-21T23:43:20.260Z,4.50
2019-05-21T23:44:20.186Z,3.50
2019-05-21T23:45:20.237Z,5.30
2019-05-21T23:46:20.213Z,3.90
2019-05-21T23:47:20.233Z,2.60
2019-05-21T23:48:20.213Z,2.70
2019-05-21T23:49:20.196Z,3.80
2019-05-21T23:50:20.224Z,3.90
2019-05-21T23:51:20.239Z,3.00
2019-05-21T23:52:20.248Z,4.10
2019-05-21T23:53:20.238Z,5.60
2019-05-21T23:54:20.243Z,4.70
2019-05-21T23:55:20.193Z,3.90
2019-05-21T23:56:20.215Z,3.60
2019-05-21T23:57:20.240Z,3.50
2019-05-21T23:58:20.239Z,3.30
2019-05-21T23:59:20.225Z,4.30
